Time;durP1;ratioP1;P1;durP2;ratioP2;P2;SDS_P1;SDS_P2;PMS_P1;PMS_P2;Temp;Humidity;BMP_temperature;BMP_pressure;BME280_temperature;BME280_humidity;BME280_pressure;Samples;Min_cycle;Max_cycle;Signal;HPM_P1;HPM_P2
2023/04/24 00:02:47;;;;;;;16.63;12.93;;;9.80;81.00;;;;;;6279990;22;20042;-95
2023/04/24 00:05:46;;;;;;;;;;;;;;;;;;;;;
2023/04/24 00:08:30;;;;;;;16.10;10.70;;;9.80;81.00;;;;;;6262835;22;20019;-94
2023/04/24 00:11:09;;;;;;;11.77;10.13;;;9.80;81.10;;;;;;6256817;22;20387;-91
2023/04/24 00:14:18;;;;;;;14.87;10.63;;;9.80;81.00;;;;;;6275017;22;20085;-95
2023/04/24 00:18:18;;;;;;;15.90;11.30;;;9.70;81.20;;;;;;6296644;22;20011;-95
2023/04/24 00:20:53;;;;;;;;;;;;;;;;;;;;;
2023/04/24 00:23:33;;;;;;;14.10;10.90;;;9.70;81.50;;;;;;6289670;22;20014;-94
2023/04/24 00:26:40;;;;;;;16.07;11.67;;;9.70;81.50;;;;;;6278279;22;20027;-94
2023/04/24 00:29:29;;;;;;;16.60;11.13;;;9.60;81.40;;;;;;6263732;22;20054;-94
2023/04/24 00:37:57;;;;;;;15.77;10.77;;;9.60;81.60;;;;;;6279701;22;20026;-94
2023/04/24 00:40:27;;;;;;;16.27;11.70;;;9.60;81.60;;;;;;6255118;22;20019;-94
2023/04/24 00:42:59;;;;;;;18.20;12.20;;;9.60;81.70;;;;;;6254528;22;20019;-94
2023/04/24 00:48:34;;;;;;;13.60;10.87;;;9.60;81.90;;;;;;6281442;22;20106;-93
2023/04/24 00:51:01;;;;;;;16.13;11.93;;;9.60;81.90;;;;;;6281581;22;20077;-94
2023/04/24 00:53:32;;;;;;;16.03;10.77;;;9.60;81.80;;;;;;6235641;22;20018;-94
2023/04/24 00:56:21;;;;;;;11.27;10.07;;;9.60;81.90;;;;;;6280386;22;20034;-95
2023/04/24 00:58:59;;;;;;;11.47;10.27;;;9.60;81.90;;;;;;6246633;22;20033;-95
2023/04/24 01:01:41;;;;;;;14.03;11.20;;;9.60;81.70;;;;;;6226344;22;20562;-94
2023/04/24 01:04:18;;;;;;;9.50;8.20;;;9.60;81.70;;;;;;6255702;22;20023;-95
2023/04/24 01:07:10;;;;;;;8.37;7.40;;;9.60;81.70;;;;;;6247679;22;20008;-94
2023/04/24 01:10:01;;;;;;;6.47;5.87;;;9.60;81.40;;;;;;6216721;22;20065;-94
2023/04/24 01:12:32;;;;;;;6.27;4.83;;;9.50;81.30;;;;;;6254211;22;20015;-94
2023/04/24 01:14:59;;;;;;;6.43;5.10;;;9.40;81.10;;;;;;6277155;22;20019;-93
2023/04/24 01:18:04;;;;;;;5.30;4.70;;;9.40;81.10;;;;;;6260273;22;20046;-94
2023/04/24 01:20:50;;;;;;;6.40;5.50;;;9.40;81.10;;;;;;6281985;22;20026;-94
2023/04/24 01:23:36;;;;;;;5.43;4.70;;;9.40;81.20;;;;;;6240755;22;20025;-94
2023/04/24 01:26:32;;;;;;;;;;;;;;;;;;;;;
2023/04/24 01:29:14;;;;;;;6.27;4.87;;;9.40;81.40;;;;;;6303530;22;20023;-94
2023/04/24 01:31:46;;;;;;;7.23;5.00;;;9.30;81.30;;;;;;6281023;22;20027;-94
2023/04/24 01:34:24;;;;;;;8.80;5.60;;;9.20;81.40;;;;;;6215566;22;20093;-92
2023/04/24 01:37:00;;;;;;;7.53;6.00;;;9.20;81.50;;;;;;6252609;22;20015;-94
2023/04/24 01:39:28;;;;;;;7.33;5.60;;;9.20;81.50;;;;;;6280804;22;20110;-94
2023/04/24 01:41:57;;;;;;;7.53;6.00;;;9.20;81.50;;;;;;6280746;22;20030;-94
2023/04/24 01:44:36;;;;;;;7.67;6.00;;;9.20;81.50;;;;;;6261257;22;20031;-93
2023/04/24 01:47:02;;;;;;;6.60;5.33;;;9.20;81.50;;;;;;6270589;22;20085;-91
2023/04/24 01:49:35;;;;;;;7.67;5.50;;;9.20;81.50;;;;;;6253616;22;20038;-93
2023/04/24 01:52:24;;;;;;;5.70;4.90;;;9.20;81.60;;;;;;6215611;22;20015;-93
2023/04/24 01:55:10;;;;;;;4.93;4.43;;;9.20;81.50;;;;;;6227238;22;20023;-94
2023/04/24 01:57:42;;;;;;;6.00;5.20;;;9.10;81.60;;;;;;6202051;22;20111;-94
2023/04/24 02:00:16;;;;;;;8.90;5.53;;;9.00;81.60;;;;;;6195089;22;20044;-93
2023/04/24 02:03:01;;;;;;;5.83;5.23;;;9.00;81.70;;;;;;6279948;22;20341;-94
2023/04/24 02:05:30;;;;;;;6.33;5.03;;;9.00;81.80;;;;;;6280584;22;20012;-93
2023/04/24 02:07:56;;;;;;;7.13;5.60;;;9.00;81.80;;;;;;6211731;22;20023;-93
2023/04/24 02:10:22;;;;;;;5.40;4.90;;;9.00;81.80;;;;;;6265312;22;20050;-93
2023/04/24 02:12:53;;;;;;;6.00;5.30;;;9.00;81.90;;;;;;6277496;22;20098;-93
2023/04/24 02:15:24;;;;;;;7.43;5.40;;;9.00;81.90;;;;;;6281402;22;20102;-93
2023/04/24 02:17:53;;;;;;;6.30;5.70;;;9.00;81.90;;;;;;6247488;22;20043;-94
2023/04/24 02:20:40;;;;;;;7.07;5.77;;;9.00;81.90;;;;;;6254619;22;20335;-92
2023/04/24 02:23:11;;;;;;;9.93;6.00;;;9.00;82.00;;;;;;6241674;22;20457;-92
2023/04/24 02:25:49;;;;;;;7.93;6.37;;;9.00;82.00;;;;;;6281986;22;20446;-93
2023/04/24 02:28:15;;;;;;;8.67;7.13;;;9.00;81.90;;;;;;6226766;22;20024;-93
2023/04/24 02:30:52;;;;;;;7.90;6.50;;;9.00;82.00;;;;;;6280575;22;20022;-93
2023/04/24 02:33:23;;;;;;;9.03;7.40;;;9.00;82.00;;;;;;6265159;22;20086;-93
2023/04/24 02:35:49;;;;;;;8.57;7.60;;;9.00;82.00;;;;;;6280280;22;20019;-93
2023/04/24 02:38:18;;;;;;;9.07;7.90;;;9.00;81.90;;;;;;6270671;22;20015;-93
2023/04/24 02:41:06;;;;;;;10.00;8.50;;;9.00;81.90;;;;;;6254789;22;20019;-93
2023/04/24 02:43:34;;;;;;;9.60;8.60;;;9.00;81.90;;;;;;6277604;22;20454;-93
2023/04/24 02:46:00;;;;;;;13.37;9.60;;;9.00;82.00;;;;;;6280874;22;20015;-93
2023/04/24 02:48:26;;;;;;;12.37;9.77;;;9.00;82.10;;;;;;6272317;22;20016;-93
2023/04/24 02:51:01;;;;;;;13.87;10.27;;;9.00;82.00;;;;;;6280521;22;20030;-92
2023/04/24 02:53:29;;;;;;;13.10;10.00;;;9.00;82.00;;;;;;6239095;22;20055;-92
2023/04/24 02:56:21;;;;;;;15.70;11.53;;;9.00;82.10;;;;;;6280563;22;20568;-92
2023/04/24 02:58:47;;;;;;;18.57;12.40;;;9.00;82.10;;;;;;6273812;22;20088;-92
2023/04/24 03:01:18;;;;;;;14.93;12.37;;;9.00;82.10;;;;;;6279818;22;20429;-93
2023/04/24 03:03:50;;;;;;;15.80;12.70;;;9.00;82.20;;;;;;6276055;22;20030;-92
2023/04/24 03:06:27;;;;;;;16.93;12.77;;;9.10;82.20;;;;;;6277614;22;20487;-93
2023/04/24 03:09:00;;;;;;;15.27;12.33;;;9.10;82.30;;;;;;6274884;22;20631;-91
2023/04/24 03:11:28;;;;;;;15.40;12.67;;;9.10;82.20;;;;;;6281027;22;20015;-92
2023/04/24 03:13:59;;;;;;;17.73;13.23;;;9.10;82.30;;;;;;6266658;22;20029;-92
2023/04/24 03:16:25;;;;;;;;;;;9.10;82.30;;;;;;6277084;22;20717;-92
2023/04/24 03:18:54;;;;;;;18.70;14.20;;;9.10;82.40;;;;;;6264089;22;19914;-92
2023/04/24 03:21:23;;;;;;;20.40;14.87;;;9.10;82.40;;;;;;6280928;22;20552;-93
2023/04/24 03:23:57;;;;;;;20.03;15.13;;;9.20;82.30;;;;;;6276394;22;20027;-91
2023/04/24 03:26:31;;;;;;;21.17;15.13;;;9.20;82.30;;;;;;6277111;22;20019;-92
2023/04/24 03:29:00;;;;;;;18.90;15.03;;;9.20;82.30;;;;;;6251693;22;20024;-92
2023/04/24 03:31:31;;;;;;;21.23;15.83;;;9.20;82.40;;;;;;6280458;22;20022;-93
2023/04/24 03:33:57;;;;;;;24.10;16.23;;;9.20;82.40;;;;;;6226209;22;20023;-92
2023/04/24 03:36:23;;;;;;;26.17;17.70;;;9.20;82.40;;;;;;6273931;22;20088;-92
2023/04/24 03:38:52;;;;;;;26.37;17.70;;;9.20;82.40;;;;;;6276294;22;20019;-92
2023/04/24 03:41:20;;;;;;;23.10;16.87;;;9.20;82.40;;;;;;6279739;22;20437;-90
2023/04/24 03:43:46;;;;;;;24.67;17.43;;;9.20;82.50;;;;;;6211796;22;20333;-92
2023/04/24 03:46:17;;;;;;;25.93;18.97;;;9.20;82.40;;;;;;6273343;22;20039;-92
2023/04/24 03:48:43;;;;;;;28.02;18.52;;;9.20;82.40;;;;;;6225109;22;20076;-92
2023/04/24 03:51:09;;;;;;;27.63;19.20;;;9.20;82.40;;;;;;6255642;22;20015;-92
2023/04/24 03:53:38;;;;;;;27.00;19.77;;;9.20;82.40;;;;;;6251797;22;20047;-92
2023/04/24 03:56:13;;;;;;;30.00;20.30;;;9.20;82.40;;;;;;6279585;22;20023;-92
2023/04/24 03:58:38;;;;;;;31.70;19.97;;;9.30;82.40;;;;;;6246573;22;20023;-92
2023/04/24 04:01:05;;;;;;;33.30;21.70;;;9.20;82.40;;;;;;6278564;22;20464;-92
2023/04/24 04:03:31;;;;;;;32.53;22.13;;;9.30;82.40;;;;;;6266946;22;20027;-92
2023/04/24 04:05:57;;;;;;;30.63;21.93;;;9.30;82.40;;;;;;6254619;22;20088;-91
2023/04/24 04:08:28;;;;;;;28.73;20.77;;;9.30;82.40;;;;;;6245651;22;20019;-90
2023/04/24 04:10:54;;;;;;;31.38;22.55;;;9.30;82.50;;;;;;6255123;22;20742;-91
2023/04/24 04:13:20;;;;;;;29.40;20.90;;;9.30;82.50;;;;;;6278229;22;20019;-91
2023/04/24 04:15:52;;;;;;;33.33;22.73;;;9.30;82.40;;;;;;6231133;22;20016;-91
2023/04/24 04:18:28;;;;;;;40.30;23.77;;;9.30;82.40;;;;;;6262266;22;20026;-94
2023/04/24 04:25:07;;;;;;;41.00;25.87;;;9.30;82.50;;;;;;6190200;22;20039;-95
2023/04/24 04:28:22;;;;;;;27.10;19.63;;;9.30;82.40;;;;;;6158373;22;20026;-96
2023/04/24 04:31:14;;;;;;;23.10;16.90;;;9.30;82.40;;;;;;6201875;23;20016;-95
2023/04/24 04:33:40;;;;;;;;;;;9.30;82.30;;;;;;6169536;22;20020;-92
2023/04/24 04:36:11;;;;;;;22.10;15.33;;;9.20;82.20;;;;;;6247601;22;20017;-90
2023/04/24 04:39:10;;;;;;;;;;;;;;;;;;;;;
2023/04/24 04:41:44;;;;;;;15.80;10.17;;;9.30;82.20;;;;;;6280163;22;20015;-95
2023/04/24 04:44:17;;;;;;;12.33;9.17;;;9.40;82.30;;;;;;6220895;22;20023;-95
2023/04/24 04:47:04;;;;;;;10.83;7.23;;;9.40;82.20;;;;;;6255323;22;20030;-95
2023/04/24 04:49:56;;;;;;;9.63;7.17;;;9.30;82.20;;;;;;6268909;22;20045;-94
2023/04/24 04:52:35;;;;;;;;;;;;;;;;;;;;;
2023/04/24 04:55:46;;;;;;;10.33;6.40;;;9.40;82.10;;;;;;6312696;22;20053;-94
2023/04/24 04:58:22;;;;;;;10.50;7.43;;;9.40;82.20;;;;;;6202284;22;20023;-93
2023/04/24 05:00:53;;;;;;;10.10;7.10;;;9.40;82.20;;;;;;6259345;22;20023;-95
2023/04/24 05:03:57;;;;;;;9.45;6.82;;;9.30;82.20;;;;;;6280665;22;20365;-94
2023/04/24 05:06:32;;;;;;;10.77;6.67;;;9.30;82.20;;;;;;6307884;22;20015;-93
2023/04/24 05:09:28;;;;;;;;;;;;;;;;;;;;;
2023/04/24 05:11:57;;;;;;;8.63;5.10;;;9.30;82.20;;;;;;6288425;22;20015;-94
2023/04/24 05:14:29;;;;;;;7.13;5.40;;;9.20;82.10;;;;;;6259389;22;20023;-93
2023/04/24 05:16:57;;;;;;;10.43;6.93;;;9.20;82.20;;;;;;6278590;22;20054;-94
2023/04/24 05:19:29;;;;;;;11.80;7.25;;;9.20;82.20;;;;;;6283742;22;20333;-92
2023/04/24 05:21:55;;;;;;;13.53;7.80;;;9.20;82.20;;;;;;6258477;22;20019;-93
2023/04/24 05:24:24;;;;;;;9.73;7.07;;;9.20;82.20;;;;;;6281944;22;20076;-93
2023/04/24 05:26:49;;;;;;;8.13;5.77;;;9.20;82.20;;;;;;6277968;22;20015;-92
2023/04/24 05:32:09;;;;;;;7.90;5.03;;;9.20;82.20;;;;;;6265032;22;20058;-93
2023/04/24 05:34:36;;;;;;;9.20;5.73;;;9.20;82.10;;;;;;6257048;22;20019;-92
2023/04/24 05:37:02;;;;;;;7.87;5.37;;;9.20;82.20;;;;;;6275923;22;20012;-93
2023/04/24 05:39:31;;;;;;;9.53;6.03;;;9.20;82.10;;;;;;6282110;22;20092;-94
2023/04/24 05:42:06;;;;;;;11.27;6.13;;;9.20;82.10;;;;;;6282503;22;20046;-93
2023/04/24 05:44:32;;;;;;;9.53;5.80;;;9.20;82.10;;;;;;6258810;22;20511;-92
2023/04/24 05:47:01;;;;;;;7.80;6.17;;;9.10;82.10;;;;;;6275177;22;20015;-94
2023/04/24 05:49:29;;;;;;;9.93;6.53;;;9.20;82.10;;;;;;6253540;22;20272;-90
2023/04/24 05:51:57;;;;;;;9.03;5.30;;;9.20;82.10;;;;;;6280786;22;20777;-91
2023/04/24 05:54:32;;;;;;;10.80;5.22;;;9.20;82.00;;;;;;6280663;22;20027;-93
2023/04/24 05:56:59;;;;;;;12.63;5.13;;;9.10;81.90;;;;;;6273664;22;20110;-91
2023/04/24 05:59:28;;;;;;;8.87;5.20;;;9.10;81.70;;;;;;6278940;22;20019;-94
2023/04/24 06:01:56;;;;;;;10.73;5.67;;;9.10;81.80;;;;;;6281097;22;20023;-92
2023/04/24 06:04:22;;;;;;;14.20;6.17;;;9.00;81.80;;;;;;6249872;22;20414;-93
2023/04/24 06:07:15;;;;;;;11.20;7.30;;;9.00;81.90;;;;;;6301617;22;20101;-94
2023/04/24 06:09:41;;;;;;;15.17;8.67;;;9.10;81.90;;;;;;6279077;22;20030;-90
2023/04/24 06:12:08;;;;;;;14.03;8.90;;;9.00;81.90;;;;;;6278699;22;20488;-92
2023/04/24 06:14:34;;;;;;;14.67;10.07;;;9.10;82.00;;;;;;6281827;22;20454;-93
2023/04/24 06:20:29;;;;;;;14.43;10.17;;;9.10;81.90;;;;;;6253020;22;20023;-93
2023/04/24 06:23:57;;;;;;;;;;;;;;;;;;;;;
2023/04/24 06:26:29;;;;;;;15.80;10.00;;;9.20;81.80;;;;;;6240298;22;20019;-93
2023/04/24 06:28:59;;;;;;;13.97;9.63;;;9.20;81.80;;;;;;6195540;22;20375;-91
2023/04/24 06:31:36;;;;;;;12.90;7.80;;;9.10;81.70;;;;;;6222742;22;20466;-93
2023/04/24 06:34:14;;;;;;;8.90;6.77;;;9.10;81.70;;;;;;6209205;22;20028;-90
2023/04/24 06:36:42;;;;;;;10.87;6.57;;;9.20;81.80;;;;;;6216777;22;20012;-92
2023/04/24 06:41:55;;;;;;;8.33;4.80;;;9.20;81.60;;;;;;6285557;22;20441;-91
2023/04/24 06:44:23;;;;;;;8.37;4.27;;;9.20;81.60;;;;;;6253200;22;20043;-91
2023/04/24 06:46:52;;;;;;;6.20;3.10;;;9.20;81.70;;;;;;6276038;22;20022;-90
2023/04/24 06:49:21;;;;;;;7.93;3.80;;;9.20;81.40;;;;;;6277800;22;20027;-93
2023/04/24 06:51:56;;;;;;;6.37;3.17;;;9.20;81.50;;;;;;6281838;22;20441;-92
2023/04/24 06:54:25;;;;;;;8.30;2.97;;;9.20;81.40;;;;;;6216777;22;20019;-92
2023/04/24 06:56:54;;;;;;;4.53;3.03;;;9.20;81.30;;;;;;6275649;22;20354;-92
2023/04/24 06:59:20;;;;;;;9.73;3.10;;;9.20;81.40;;;;;;6224381;22;20030;-92
2023/04/24 07:02:02;;;;;;;;;;;;;;;;;;;;;
2023/04/24 07:04:34;;;;;;;8.70;3.30;;;9.20;81.50;;;;;;6289578;22;20023;-92
2023/04/24 07:07:00;;;;;;;5.97;3.37;;;9.20;81.30;;;;;;6271860;22;20081;-90
2023/04/24 07:09:39;;;;;;;;;;;;;;;;;;;;;
2023/04/24 07:16:09;;;;;;;;;;;;;;;;;;;;;
2023/04/24 07:18:41;;;;;;;11.47;5.30;;;9.20;81.10;;;;;;6237531;22;20023;-89
2023/04/24 07:21:09;;;;;;;;;;;9.20;81.20;;;;;;6237699;22;20102;-89
2023/04/24 07:24:13;;;;;;;12.33;3.60;;;9.20;80.80;;;;;;6231091;22;19978;-92
2023/04/24 07:27:20;;;;;;;9.97;2.80;;;9.20;80.90;;;;;;6255508;22;20026;-96
2023/04/24 07:30:10;;;;;;;7.53;2.73;;;9.10;80.80;;;;;;6150100;22;20027;-96
2023/04/24 07:36:15;;;;;;;12.37;3.87;;;9.10;80.80;;;;;;6176916;23;20020;-96
2023/04/24 07:39:17;;;;;;;10.43;6.30;;;9.00;80.80;;;;;;6143214;23;20088;-95
2023/04/24 07:42:01;;;;;;;13.40;7.30;;;9.00;80.60;;;;;;6151139;23;20059;-93
2023/04/24 07:44:27;;;;;;;20.50;11.37;;;9.00;80.60;;;;;;6148883;23;20020;-90
2023/04/24 07:46:58;;;;;;;23.23;14.20;;;9.00;80.50;;;;;;6145276;23;20096;-95
2023/04/24 07:49:30;;;;;;;25.53;15.27;;;8.90;80.50;;;;;;6149933;23;20020;-92
2023/04/24 07:52:08;;;;;;;27.63;16.13;;;8.90;80.50;;;;;;6152625;23;20013;-95
2023/04/24 07:54:58;;;;;;;25.53;15.23;;;8.90;80.50;;;;;;6149004;23;20021;-93
2023/04/24 07:57:36;;;;;;;32.57;18.20;;;8.80;80.50;;;;;;6094133;23;20377;-91
2023/04/24 08:00:23;;;;;;;38.50;21.97;;;8.80;80.50;;;;;;6198936;22;20034;-93
2023/04/24 08:03:18;;;;;;;35.77;20.57;;;8.80;80.50;;;;;;6275573;22;20030;-93
2023/04/24 08:05:55;;;;;;;35.50;20.90;;;8.70;80.40;;;;;;6274351;22;20027;-93
2023/04/24 08:08:22;;;;;;;;;;;8.60;80.40;;;;;;6202635;22;20051;-91
2023/04/24 08:14:20;;;;;;;41.30;23.23;;;8.60;80.40;;;;;;6217726;22;20022;-94
2023/04/24 08:16:49;;;;;;;36.30;21.53;;;8.60;80.50;;;;;;6247304;22;20007;-96
2023/04/24 08:19:58;;;;;;;;;;;;;;;;;;;;;
2023/04/24 08:22:59;;;;;;;30.17;20.00;;;8.60;80.30;;;;;;6284042;22;20478;-93
2023/04/24 08:25:46;;;;;;;36.37;20.50;;;8.60;80.20;;;;;;6240924;22;20019;-91
2023/04/24 08:28:33;;;;;;;33.37;19.37;;;8.50;80.10;;;;;;6258611;22;20033;-96
2023/04/24 08:34:16;;;;;;;37.50;18.27;;;8.50;79.90;;;;;;6164805;23;20028;-94
2023/04/24 08:36:51;;;;;;;31.03;18.73;;;8.40;80.00;;;;;;6291831;22;20043;-93
2023/04/24 08:39:26;;;;;;;28.43;17.47;;;8.40;79.90;;;;;;6273482;22;20050;-93
2023/04/24 08:42:17;;;;;;;35.73;19.07;;;8.30;79.70;;;;;;6247992;22;20046;-95
2023/04/24 08:45:28;;;;;;;29.50;18.00;;;8.30;79.60;;;;;;6286557;22;20022;-95
2023/04/24 08:48:00;;;;;;;27.20;17.70;;;8.30;79.70;;;;;;6202236;22;20052;-94
2023/04/24 08:50:34;;;;;;;26.33;16.57;;;8.30;79.40;;;;;;6270986;22;20015;-93
2023/04/24 08:53:04;;;;;;;24.30;16.27;;;8.30;79.50;;;;;;6295621;22;20180;-89
2023/04/24 08:55:53;;;;;;;25.27;16.50;;;8.30;79.10;;;;;;6272207;22;20022;-95
2023/04/24 08:58:39;;;;;;;25.27;15.10;;;8.20;78.90;;;;;;6253698;22;20025;-94
2023/04/24 09:05:40;;;;;;;19.57;11.23;;;8.20;78.20;;;;;;6218985;22;20112;-94
2023/04/24 09:08:28;;;;;;;16.52;10.95;;;8.20;78.50;;;;;;6259825;22;20373;-93
2023/04/24 09:11:02;;;;;;;17.80;10.83;;;8.30;78.50;;;;;;6277178;22;20022;-91
2023/04/24 09:13:44;;;;;;;18.13;10.43;;;8.30;78.50;;;;;;6257276;22;20022;-87
2023/04/24 09:16:53;;;;;;;17.03;10.33;;;8.30;78.20;;;;;;6302420;22;20138;-96
2023/04/24 09:19:27;;;;;;;18.30;11.40;;;8.40;78.30;;;;;;6184585;23;20225;-96
2023/04/24 09:21:56;;;;;;;22.40;10.73;;;8.40;78.40;;;;;;6183099;23;20016;-91
2023/04/24 09:24:42;;;;;;;18.57;10.43;;;8.40;78.40;;;;;;6164383;23;20110;-93
2023/04/24 09:27:12;;;;;;;16.67;11.13;;;8.40;78.40;;;;;;6140271;23;20102;-90
2023/04/24 09:30:22;;;;;;;21.93;10.87;;;8.40;78.70;;;;;;6183962;23;20016;-92
2023/04/24 09:33:22;;;;;;;18.07;8.67;;;8.50;77.90;;;;;;6205821;23;20028;-93
2023/04/24 09:36:19;;;;;;;24.80;9.37;;;8.40;77.90;;;;;;6159949;23;20066;-95
2023/04/24 09:42:35;;;;;;;;;;;;;;;;;;;;;
2023/04/24 09:45:48;;;;;;;22.27;7.33;;;8.30;77.20;;;;;;6046077;23;20030;-93
2023/04/24 09:48:13;;;;;;;16.27;6.40;;;8.40;77.40;;;;;;6184324;22;20035;-93
2023/04/24 09:51:11;;;;;;;;;;;;;;;;;;;;;
2023/04/24 09:54:58;;;;;;;14.43;6.07;;;8.50;76.90;;;;;;6128950;23;20476;-90
2023/04/24 09:57:39;;;;;;;12.43;5.10;;;8.60;76.20;;;;;;6031817;23;20034;-93
2023/04/24 10:00:18;;;;;;;12.93;4.57;;;8.80;76.50;;;;;;6016896;23;20026;-95
2023/04/24 10:03:33;;;;;;;12.70;4.07;;;8.90;76.00;;;;;;6115444;23;20028;-96
2023/04/24 10:06:51;;;;;;;12.47;4.00;;;9.00;73.10;;;;;;6141806;23;20028;-91
2023/04/24 10:09:29;;;;;;;14.70;4.63;;;9.10;73.90;;;;;;6011239;23;20108;-91
2023/04/24 10:15:29;;;;;;;14.15;4.55;;;9.40;75.20;;;;;;6137802;23;20032;-96
2023/04/24 10:18:22;;;;;;;9.67;3.90;;;9.50;75.20;;;;;;6076094;23;20563;-95
2023/04/24 10:20:54;;;;;;;15.63;4.27;;;9.60;73.80;;;;;;6112624;23;20021;-94
2023/04/24 10:23:37;;;;;;;9.03;4.20;;;9.70;74.70;;;;;;6105484;23;20024;-91
2023/04/24 10:26:32;;;;;;;7.80;4.23;;;9.70;73.60;;;;;;6120742;23;20075;-92
2023/04/24 10:28:58;;;;;;;10.80;4.07;;;9.70;72.00;;;;;;6162040;22;20105;-90
2023/04/24 10:34:28;;;;;;;13.30;3.80;;;9.50;73.80;;;;;;6276724;22;20460;-89
2023/04/24 10:40:16;;;;;;;16.10;4.07;;;9.50;74.20;;;;;;6276950;22;20079;-92
2023/04/24 10:42:56;;;;;;;10.07;3.63;;;9.50;73.90;;;;;;6233438;22;20034;-93
2023/04/24 10:45:29;;;;;;;13.47;4.07;;;9.50;73.60;;;;;;6272442;22;20015;-90
2023/04/24 10:51:45;;;;;;;12.23;3.27;;;9.50;73.30;;;;;;6300208;22;20058;-90
2023/04/24 10:55:15;;;;;;;8.23;3.20;;;9.60;72.20;;;;;;6165790;22;20025;-96
2023/04/24 10:58:06;;;;;;;9.23;2.77;;;9.60;71.10;;;;;;6050566;23;20031;-91
2023/04/24 11:01:13;;;;;;;10.60;3.20;;;9.60;72.70;;;;;;6181041;23;20019;-96
2023/04/24 11:04:11;;;;;;;7.63;3.00;;;9.50;70.10;;;;;;6118723;23;20028;-90
2023/04/24 11:06:56;;;;;;;;;;;;;;;;;;;;;
2023/04/24 11:13:22;;;;;;;10.03;2.50;;;9.40;70.20;;;;;;6141794;23;20020;-93
2023/04/24 11:16:39;;;;;;;;;;;;;;;;;;;;;
2023/04/24 11:19:18;;;;;;;9.57;2.17;;;9.40;69.40;;;;;;6297553;22;20034;-91
2023/04/24 11:22:13;;;;;;;6.80;2.10;;;9.40;71.60;;;;;;6277817;22;20015;-93
2023/04/24 11:25:30;;;;;;;;;;;;;;;;;;;;;
2023/04/24 11:28:41;;;;;;;9.40;2.93;;;9.30;71.10;;;;;;6261469;22;20027;-92
2023/04/24 11:35:17;;;;;;;;;;;;;;;;;;;;;
2023/04/24 11:41:45;;;;;;;;;;;;;;;;;;;;;
2023/04/24 11:45:03;;;;;;;7.67;2.27;;;9.20;70.30;;;;;;6193442;22;20047;-95
2023/04/24 11:51:27;;;;;;;11.13;2.20;;;9.20;70.00;;;;;;6117476;23;20021;-91
2023/04/24 11:54:38;;;;;;;11.07;2.03;;;9.20;69.20;;;;;;6273022;22;20041;-95
2023/04/24 11:57:14;;;;;;;11.85;2.53;;;9.00;70.40;;;;;;6226989;22;20018;-92
2023/04/24 12:00:02;;;;;;;7.27;2.40;;;8.90;72.00;;;;;;6204918;22;20023;-92
2023/04/24 12:02:52;;;;;;;8.63;2.03;;;8.60;72.20;;;;;;6259464;22;20018;-90
2023/04/24 12:05:33;;;;;;;8.73;2.10;;;8.50;72.10;;;;;;6245309;22;20092;-90
2023/04/24 12:08:08;;;;;;;10.07;2.38;;;8.60;72.70;;;;;;6251170;22;20015;-95
2023/04/24 12:10:59;;;;;;;8.13;1.80;;;8.60;72.20;;;;;;6267315;22;20015;-91
2023/04/24 12:13:26;;;;;;;8.47;2.03;;;8.60;72.40;;;;;;6209250;22;20023;-89
2023/04/24 12:16:28;;;;;;;7.03;1.97;;;8.70;72.10;;;;;;6264721;22;20019;-95
2023/04/24 12:19:06;;;;;;;6.93;1.77;;;8.80;71.20;;;;;;6246953;22;20022;-87
2023/04/24 12:22:01;;;;;;;2.88;1.30;;;8.90;71.30;;;;;;6292274;22;20058;-89
2023/04/24 12:24:57;;;;;;;4.07;0.93;;;9.00;69.50;;;;;;6264458;22;20034;-91
2023/04/24 12:27:30;;;;;;;6.33;1.80;;;9.10;70.70;;;;;;6242556;22;20028;-92
2023/04/24 12:30:00;;;;;;;6.27;1.20;;;9.20;69.30;;;;;;6270231;22;20012;-90
2023/04/24 12:33:00;;;;;;;;;;;;;;;;;;;;;
2023/04/24 12:35:48;;;;;;;3.23;1.03;;;9.10;68.50;;;;;;6233606;23;20478;-90
2023/04/24 12:38:22;;;;;;;8.07;1.00;;;9.00;68.10;;;;;;6259828;22;20011;-89
2023/04/24 12:41:04;;;;;;;7.17;1.17;;;9.00;69.70;;;;;;6270652;22;20026;-91
2023/04/24 12:43:33;;;;;;;7.00;1.30;;;9.00;70.30;;;;;;6257126;22;20475;-94
2023/04/24 12:46:02;;;;;;;7.90;1.57;;;9.00;70.10;;;;;;6270730;22;20015;-93
2023/04/24 12:49:18;;;;;;;5.70;1.27;;;9.00;70.70;;;;;;6291568;22;20019;-94
2023/04/24 12:52:06;;;;;;;8.30;1.53;;;8.80;69.10;;;;;;6276125;22;20053;-93
2023/04/24 12:55:35;;;;;;;11.83;1.77;;;8.60;69.40;;;;;;6205321;22;20019;-96
2023/04/24 12:58:49;;;;;;;10.07;1.67;;;8.50;69.70;;;;;;6182554;23;20753;-89
2023/04/24 13:01:32;;;;;;;7.47;1.57;;;8.50;70.70;;;;;;6183367;23;20127;-96
2023/04/24 13:04:01;;;;;;;8.33;1.70;;;8.40;70.70;;;;;;6156586;23;20020;-91
2023/04/24 13:06:31;;;;;;;8.13;1.57;;;8.40;72.00;;;;;;6180913;23;20024;-93
2023/04/24 13:09:05;;;;;;;7.07;1.43;;;8.30;71.10;;;;;;6152788;23;20020;-90
2023/04/24 13:11:46;;;;;;;6.43;1.38;;;8.30;71.80;;;;;;6207986;23;20332;-90
2023/04/24 13:14:31;;;;;;;;;;;;;;;;;;;;;
2023/04/24 13:17:13;;;;;;;4.93;1.37;;;8.30;72.30;;;;;;6289026;22;20025;-90
2023/04/24 13:19:45;;;;;;;5.17;1.23;;;8.30;72.20;;;;;;6221282;22;20019;-92
2023/04/24 13:22:17;;;;;;;6.30;1.13;;;8.40;72.00;;;;;;6271856;22;20022;-90
2023/04/24 13:27:28;;;;;;;5.57;0.83;;;8.60;69.60;;;;;;6239223;22;19946;-90
2023/04/24 13:30:32;;;;;;;3.00;0.43;;;8.60;70.20;;;;;;6248476;22;20015;-93
2023/04/24 13:36:50;;;;;;;6.87;0.70;;;8.60;69.20;;;;;;6243725;22;20023;-92
2023/04/24 13:40:21;;;;;;;;;;;;;;;;;;;;;
2023/04/24 13:43:43;;;;;;;6.17;1.23;;;8.80;69.80;;;;;;6179121;23;20050;-95
2023/04/24 13:46:30;;;;;;;3.07;0.80;;;8.80;70.30;;;;;;6071778;23;20029;-93
2023/04/24 13:48:59;;;;;;;5.20;1.30;;;8.80;71.40;;;;;;6162020;23;20024;-90
2023/04/24 13:51:40;;;;;;;;;;;;;;;;;;;;;
2023/04/24 13:57:01;;;;;;;11.17;2.83;;;8.40;73.20;;;;;;6291063;22;20026;-90
2023/04/24 14:00:17;;;;;;;;;;;;;;;;;;;;;
2023/04/24 14:03:18;;;;;;;9.97;2.80;;;8.00;75.30;;;;;;6268139;22;20027;-90
2023/04/24 14:05:55;;;;;;;16.17;2.83;;;7.90;75.60;;;;;;6272055;22;20027;-92
2023/04/24 14:08:32;;;;;;;12.90;3.10;;;8.00;75.60;;;;;;6232719;22;20029;-90
2023/04/24 14:11:04;;;;;;;9.00;2.87;;;8.00;75.50;;;;;;6221196;22;20019;-91
2023/04/24 14:14:11;;;;;;;14.03;3.10;;;8.00;75.10;;;;;;6222057;22;20023;-90
2023/04/24 14:16:45;;;;;;;16.93;3.20;;;8.00;75.30;;;;;;6143204;23;20124;-89
2023/04/24 14:19:20;;;;;;;16.73;3.93;;;8.00;75.90;;;;;;6146288;22;20031;-89
2023/04/24 14:21:57;;;;;;;17.70;3.90;;;7.90;75.90;;;;;;6271613;22;20015;-92
2023/04/24 14:24:23;;;;;;;14.80;3.60;;;7.90;75.70;;;;;;6212063;22;20019;-90
2023/04/24 14:27:00;;;;;;;11.23;3.57;;;8.00;75.80;;;;;;6266066;22;20105;-92
2023/04/24 14:29:26;;;;;;;11.80;3.73;;;8.00;75.80;;;;;;6228725;22;20023;-92
2023/04/24 14:31:59;;;;;;;12.87;3.27;;;8.00;76.10;;;;;;6269422;22;20589;-90
2023/04/24 14:34:36;;;;;;;13.77;4.30;;;8.00;75.70;;;;;;6197591;22;20036;-91
2023/04/24 14:37:15;;;;;;;9.73;3.57;;;8.10;75.30;;;;;;6205525;22;20077;-91
2023/04/24 14:40:12;;;;;;;8.57;3.07;;;8.10;74.70;;;;;;6238122;22;20022;-92
2023/04/24 14:42:50;;;;;;;10.87;3.10;;;8.20;74.10;;;;;;6215158;22;20025;-92
2023/04/24 14:45:42;;;;;;;15.10;3.07;;;8.30;74.40;;;;;;6219384;22;20026;-90
2023/04/24 14:48:13;;;;;;;12.15;3.35;;;8.30;74.30;;;;;;6235185;22;20015;-92
2023/04/24 14:50:41;;;;;;;13.00;3.70;;;8.30;74.60;;;;;;6243584;22;20019;-92
2023/04/24 14:53:07;;;;;;;15.43;3.97;;;8.30;75.00;;;;;;6229920;22;20020;-93
2023/04/24 14:56:03;;;;;;;11.13;3.70;;;8.20;74.90;;;;;;6239959;22;20101;-93
2023/04/24 14:58:32;;;;;;;13.03;3.93;;;8.20;74.30;;;;;;6200407;22;20109;-93
2023/04/24 15:01:30;;;;;;;15.33;3.80;;;8.20;74.90;;;;;;6239463;22;20015;-91
2023/04/24 15:03:59;;;;;;;14.40;4.03;;;8.20;74.50;;;;;;6209842;22;20026;-91
2023/04/24 15:06:27;;;;;;;12.87;3.73;;;8.30;74.30;;;;;;6263480;22;20088;-92
2023/04/24 15:09:47;;;;;;;;;;;;;;;;;;;;;
2023/04/24 15:12:28;;;;;;;14.73;4.40;;;8.30;74.10;;;;;;6266253;22;20012;-91
2023/04/24 15:18:11;;;;;;;12.83;3.97;;;8.30;73.90;;;;;;6238698;22;20549;-91
2023/04/24 15:20:38;;;;;;;13.67;4.47;;;8.30;74.20;;;;;;6268925;22;20122;-90
2023/04/24 15:23:31;;;;;;;19.60;4.47;;;8.30;74.30;;;;;;6265321;22;20349;-92
2023/04/24 15:25:57;;;;;;;16.60;3.97;;;8.40;74.30;;;;;;6252806;22;20392;-92
2023/04/24 15:29:29;;;;;;;;;;;;;;;;;;;;;
2023/04/24 15:31:50;;;;;;;14.93;3.77;;;8.50;73.30;;;;;;6264189;22;20019;-91
2023/04/24 15:34:29;;;;;;;10.47;4.57;;;8.60;73.50;;;;;;6266208;22;20022;-90
2023/04/24 15:38:09;;;;;;;9.77;3.67;;;8.60;73.60;;;;;;6266668;22;20026;-91
2023/04/24 15:40:38;;;;;;;14.43;4.07;;;8.50;74.60;;;;;;6259706;22;20019;-92
2023/04/24 15:43:15;;;;;;;13.77;4.13;;;8.30;74.80;;;;;;6207705;22;20653;-90
2023/04/24 15:45:52;;;;;;;;;;;;;;;;;;;;;
2023/04/24 15:48:23;;;;;;;16.27;5.50;;;8.00;76.00;;;;;;6276398;22;20134;-89
2023/04/24 15:50:49;;;;;;;15.77;5.73;;;7.90;76.80;;;;;;6246009;22;20023;-90
2023/04/24 15:53:51;;;;;;;;;;;;;;;;;;;;;
2023/04/24 15:56:52;;;;;;;23.43;6.60;;;7.70;78.20;;;;;;6210227;23;20012;-94
2023/04/24 15:59:24;;;;;;;19.83;6.93;;;7.60;78.70;;;;;;6250662;22;20015;-89